Time;durP1;ratioP1;P1;durP2;ratioP2;P2;SDS_P1;SDS_P2;PMS_P1;PMS_P2;Temp;Humidity;BMP_temperature;BMP_pressure;BME280_temperature;BME280_humidity;BME280_pressure;Samples;Min_cycle;Max_cycle;Signal;HPM_P1;HPM_P2
2021/06/04 00:01:43;;;;;;;25.37;19.10;;;18.90;91.60;;;;;;5055313;28;20025;-35
2021/06/04 00:04:09;;;;;;;25.23;17.77;;;18.90;91.90;;;;;;5053928;28;20279;-36
2021/06/04 00:06:36;;;;;;;24.48;18.70;;;19.00;91.90;;;;;;5055329;28;20025;-36
2021/06/04 00:09:03;;;;;;;26.38;19.67;;;19.20;91.00;;;;;;5053627;28;20025;-36
2021/06/04 00:11:34;;;;;;;28.40;19.52;;;19.10;90.90;;;;;;5055213;28;20021;-36
2021/06/04 00:14:10;;;;;;;25.80;18.52;;;19.10;90.70;;;;;;5054882;28;20408;-36
2021/06/04 00:16:39;;;;;;;21.13;18.45;;;19.00;91.10;;;;;;5054032;28;20029;-36
2021/06/04 00:19:10;;;;;;;26.33;19.67;;;18.80;91.50;;;;;;5055024;28;20018;-35
2021/06/04 00:21:40;;;;;;;24.83;19.05;;;19.00;91.40;;;;;;5054995;28;20384;-36
2021/06/04 00:24:09;;;;;;;28.07;20.37;;;19.00;90.80;;;;;;5053514;28;20481;-35
2021/06/04 00:26:37;;;;;;;24.67;19.63;;;19.10;91.00;;;;;;5054511;28;20259;-35
2021/06/04 00:29:04;;;;;;;24.90;18.20;;;19.10;91.10;;;;;;5054505;28;20477;-35
2021/06/04 00:31:30;;;;;;;29.83;22.30;;;19.00;91.20;;;;;;5054365;28;20021;-35
2021/06/04 00:33:56;;;;;;;26.77;20.38;;;19.10;91.20;;;;;;5054157;28;20052;-34
2021/06/04 00:36:24;;;;;;;24.05;19.15;;;19.10;91.80;;;;;;5053100;28;20029;-35
2021/06/04 00:38:51;;;;;;;28.70;21.27;;;19.00;91.50;;;;;;5054549;28;20103;-35
2021/06/04 00:41:31;;;;;;;26.67;20.45;;;18.90;91.60;;;;;;5054271;28;20515;-36
2021/06/04 00:43:57;;;;;;;30.95;22.33;;;18.70;92.40;;;;;;5054486;28;20074;-35
2021/06/04 00:46:25;;;;;;;28.33;21.83;;;18.90;92.00;;;;;;5052760;28;20060;-36
2021/06/04 00:48:52;;;;;;;25.10;20.98;;;19.10;91.30;;;;;;5054405;28;20025;-35
2021/06/04 00:51:36;;;;;;;27.55;23.00;;;19.10;90.70;;;;;;5054092;28;20033;-35
2021/06/04 00:54:05;;;;;;;32.67;23.67;;;19.10;91.20;;;;;;5036225;28;20474;-36
2021/06/04 00:56:32;;;;;;;24.30;20.10;;;19.20;90.80;;;;;;5053078;28;20372;-37
2021/06/04 00:58:58;;;;;;;24.45;19.27;;;19.10;91.10;;;;;;5053896;28;20032;-36
2021/06/04 01:01:27;;;;;;;27.17;19.63;;;19.10;90.90;;;;;;5053963;28;20492;-35
2021/06/04 01:04:01;;;;;;;37.15;21.88;;;19.30;90.40;;;;;;5053670;28;20098;-35
2021/06/04 01:06:34;;;;;;;20.90;18.55;;;19.10;90.40;;;;;;5052475;28;20066;-35
2021/06/04 01:09:00;;;;;;;24.55;18.42;;;19.10;90.70;;;;;;5053626;28;20071;-34
2021/06/04 01:11:58;;;;;;;24.60;19.77;;;19.10;90.50;;;;;;5053603;28;20028;-35
2021/06/04 01:14:38;;;;;;;26.33;20.48;;;19.10;90.60;;;;;;5053524;28;20029;-36
2021/06/04 01:17:31;;;;;;;26.73;20.17;;;19.20;91.20;;;;;;5053837;28;20036;-36
2021/06/04 01:20:20;;;;;;;28.58;19.08;;;19.10;90.70;;;;;;5051767;28;20033;-35
2021/06/04 01:22:53;;;;;;;29.40;22.15;;;18.80;91.60;;;;;;5052941;28;20025;-35
2021/06/04 01:25:55;;;;;;;29.83;20.33;;;18.90;91.30;;;;;;5053309;28;20029;-35
2021/06/04 01:28:45;;;;;;;26.27;19.95;;;19.00;91.10;;;;;;5053488;28;20505;-35
2021/06/04 01:31:25;;;;;;;27.48;20.58;;;19.00;91.10;;;;;;5052144;28;20105;-35
2021/06/04 01:33:58;;;;;;;24.77;18.98;;;19.10;91.20;;;;;;5053118;28;20462;-37
2021/06/04 01:36:30;;;;;;;25.45;19.42;;;19.10;91.00;;;;;;5053353;28;20033;-36
2021/06/04 01:39:02;;;;;;;23.75;17.38;;;19.20;90.70;;;;;;5052183;28;20028;-35
2021/06/04 01:41:29;;;;;;;23.58;16.98;;;19.10;90.30;;;;;;5053432;28;20025;-34
2021/06/04 01:44:03;;;;;;;22.00;18.13;;;19.20;90.30;;;;;;5052097;28;20021;-34
2021/06/04 01:46:33;;;;;;;22.52;18.02;;;19.20;90.60;;;;;;5053471;28;20469;-35
2021/06/04 01:49:08;;;;;;;21.25;17.83;;;19.10;90.90;;;;;;5053359;28;20025;-35
2021/06/04 01:51:39;;;;;;;20.25;16.83;;;18.90;91.70;;;;;;5053271;28;20079;-35
2021/06/04 01:54:10;;;;;;;21.40;18.38;;;18.80;91.70;;;;;;5053414;28;20028;-35
2021/06/04 01:56:41;;;;;;;20.50;17.15;;;18.90;91.70;;;;;;5053773;28;20481;-35
2021/06/04 01:59:17;;;;;;;23.95;18.85;;;18.80;91.70;;;;;;5053525;28;20096;-36
2021/06/04 02:01:46;;;;;;;23.23;18.45;;;19.10;90.90;;;;;;5053532;28;20048;-36
2021/06/04 02:04:18;;;;;;;27.53;19.97;;;19.10;90.80;;;;;;5052255;28;20051;-35
2021/06/04 02:06:45;;;;;;;28.98;20.42;;;19.20;90.70;;;;;;5053952;28;20264;-36
2021/06/04 02:09:14;;;;;;;26.48;19.35;;;19.20;90.40;;;;;;5051855;28;20029;-35
2021/06/04 02:11:41;;;;;;;26.95;19.60;;;19.10;90.70;;;;;;5054101;28;20033;-36
2021/06/04 02:14:10;;;;;;;24.38;20.02;;;19.10;90.60;;;;;;5052921;28;20033;-35
2021/06/04 02:16:55;;;;;;;36.05;21.23;;;19.10;90.70;;;;;;5053557;28;20047;-35
2021/06/04 02:19:26;;;;;;;24.90;20.27;;;19.10;90.70;;;;;;5053214;28;20091;-36
2021/06/04 02:22:04;;;;;;;32.47;22.35;;;19.10;90.70;;;;;;5052915;28;20100;-36
2021/06/04 02:24:49;;;;;;;26.15;21.75;;;19.20;90.50;;;;;;5053049;28;20095;-35
2021/06/04 02:27:35;;;;;;;25.92;21.02;;;19.30;90.50;;;;;;5052856;28;20025;-35
2021/06/04 02:30:09;;;;;;;25.30;22.02;;;19.30;90.20;;;;;;5052858;28;20120;-35
2021/06/04 02:33:02;;;;;;;24.65;20.30;;;19.30;90.30;;;;;;5054512;28;20075;-36
2021/06/04 02:35:57;;;;;;;27.88;20.83;;;19.30;90.30;;;;;;5056213;28;20099;-36
2021/06/04 02:38:52;;;;;;;25.95;20.00;;;19.20;90.90;;;;;;5056413;28;20037;-35
2021/06/04 02:41:28;;;;;;;22.45;18.92;;;19.20;91.30;;;;;;5056346;28;20087;-36
2021/06/04 02:43:58;;;;;;;28.67;21.98;;;19.20;91.30;;;;;;5057184;28;20017;-36
2021/06/04 02:46:32;;;;;;;27.13;21.40;;;19.10;91.40;;;;;;5056756;28;20435;-36
2021/06/04 02:48:58;;;;;;;30.65;22.67;;;19.10;91.40;;;;;;5056857;28;20493;-35
2021/06/04 02:51:49;;;;;;;26.58;21.33;;;19.20;91.50;;;;;;5055262;28;20358;-36
2021/06/04 02:54:19;;;;;;;27.65;20.83;;;19.40;90.80;;;;;;5056525;28;20021;-35
2021/06/04 02:56:57;;;;;;;28.42;22.92;;;19.20;90.80;;;;;;5056844;28;20017;-36
2021/06/04 02:59:27;;;;;;;27.30;21.15;;;19.20;90.70;;;;;;5055234;28;20083;-35
2021/06/04 03:02:08;;;;;;;29.23;21.88;;;19.10;90.90;;;;;;5054967;28;20116;-35
2021/06/04 03:04:39;;;;;;;25.77;21.65;;;19.00;91.40;;;;;;5056733;28;20427;-35
2021/06/04 03:07:11;;;;;;;29.17;23.05;;;18.90;91.50;;;;;;5056138;28;20083;-35
2021/06/04 03:09:40;;;;;;;29.40;21.48;;;18.80;91.80;;;;;;5056129;28;20528;-35
2021/06/04 03:12:20;;;;;;;28.70;22.73;;;18.80;92.30;;;;;;5054755;28;20075;-35
2021/06/04 03:14:49;;;;;;;26.48;21.67;;;18.70;92.50;;;;;;5056329;28;20108;-35
2021/06/04 03:17:18;;;;;;;31.50;24.55;;;18.70;92.70;;;;;;5055955;28;20017;-35
2021/06/04 03:19:44;;;;;;;31.75;23.17;;;18.70;92.90;;;;;;5056175;28;20021;-35
2021/06/04 03:22:19;;;;;;;31.35;24.30;;;18.50;93.30;;;;;;5054618;28;20470;-36
2021/06/04 03:24:45;;;;;;;30.42;23.33;;;18.60;93.50;;;;;;5056170;28;20491;-36
2021/06/04 03:27:12;;;;;;;31.73;22.50;;;18.60;93.30;;;;;;5055709;28;20029;-35
2021/06/04 03:29:38;;;;;;;31.63;23.77;;;18.60;93.00;;;;;;5055893;28;20075;-34
2021/06/04 03:32:09;;;;;;;26.60;22.70;;;18.60;93.30;;;;;;5055556;28;20432;-36
2021/06/04 03:34:35;;;;;;;30.50;23.20;;;18.80;93.00;;;;;;5055528;28;20036;-36
2021/06/04 03:37:02;;;;;;;28.40;21.98;;;18.90;92.20;;;;;;5055858;28;20398;-36
2021/06/04 03:39:33;;;;;;;28.95;21.23;;;18.70;92.40;;;;;;5055520;28;20552;-36
2021/06/04 03:42:00;;;;;;;28.92;22.10;;;18.50;93.00;;;;;;5054252;28;20021;-35
2021/06/04 03:44:31;;;;;;;28.40;21.90;;;18.50;93.40;;;;;;5055209;28;20053;-36
2021/06/04 03:46:57;;;;;;;28.50;20.67;;;18.50;93.30;;;;;;5055382;28;20032;-36
2021/06/04 03:49:24;;;;;;;29.00;20.17;;;18.60;93.40;;;;;;5055583;28;20040;-35
2021/06/04 03:51:53;;;;;;;28.95;21.70;;;18.60;93.30;;;;;;5054090;28;20096;-35
2021/06/04 03:54:24;;;;;;;24.00;20.20;;;18.60;93.30;;;;;;5055642;28;20512;-35
2021/06/04 03:56:50;;;;;;;28.90;20.73;;;18.70;93.20;;;;;;5055272;28;20029;-35
2021/06/04 03:59:16;;;;;;;27.85;20.40;;;18.70;93.10;;;;;;5055557;28;20017;-35
2021/06/04 04:01:56;;;;;;;29.48;22.92;;;18.70;92.80;;;;;;5055164;28;20096;-35
2021/06/04 04:04:23;;;;;;;29.00;23.08;;;18.70;92.70;;;;;;5053982;28;20021;-35
2021/06/04 04:06:50;;;;;;;35.05;23.95;;;18.80;92.10;;;;;;5053743;28;20036;-35
2021/06/04 04:09:16;;;;;;;35.58;25.95;;;18.80;92.10;;;;;;5055008;28;20362;-35
2021/06/04 04:11:44;;;;;;;34.15;26.08;;;18.80;92.10;;;;;;5055165;28;20024;-36
2021/06/04 04:14:10;;;;;;;34.67;25.50;;;18.90;92.10;;;;;;5054804;28;20558;-34
2021/06/04 04:16:36;;;;;;;35.63;24.55;;;19.00;91.90;;;;;;5054934;28;20017;-35
2021/06/04 04:19:03;;;;;;;31.98;23.98;;;18.80;91.60;;;;;;5055113;28;20122;-35
2021/06/04 04:21:29;;;;;;;36.90;24.33;;;18.80;92.30;;;;;;5054689;28;20020;-34
2021/06/04 04:24:01;;;;;;;35.45;25.88;;;18.60;92.60;;;;;;5054768;28;20029;-34
2021/06/04 04:26:31;;;;;;;37.10;26.75;;;18.70;92.70;;;;;;5054703;28;20032;-35
2021/06/04 04:28:57;;;;;;;33.88;25.25;;;18.80;92.80;;;;;;5054490;28;20389;-35
2021/06/04 04:31:29;;;;;;;29.70;26.02;;;18.80;92.10;;;;;;5054537;28;20370;-35
2021/06/04 04:33:56;;;;;;;38.53;27.67;;;19.00;91.50;;;;;;5054498;28;20080;-34
2021/06/04 04:36:32;;;;;;;29.00;24.25;;;19.10;90.90;;;;;;5054475;28;20029;-34
2021/06/04 04:38:58;;;;;;;33.60;26.65;;;19.20;90.60;;;;;;5054672;28;20100;-35
2021/06/04 04:41:25;;;;;;;34.60;26.00;;;19.30;90.60;;;;;;5054411;28;20025;-35
2021/06/04 04:43:53;;;;;;;32.95;25.25;;;19.30;90.50;;;;;;5054229;28;20059;-36
2021/06/04 04:46:23;;;;;;;33.22;26.45;;;19.40;90.20;;;;;;5053881;28;20530;-34
2021/06/04 04:48:49;;;;;;;31.95;25.60;;;19.30;90.30;;;;;;5054311;28;20024;-34
2021/06/04 04:51:17;;;;;;;28.80;23.85;;;19.40;90.20;;;;;;5054375;28;20032;-35
2021/06/04 04:53:43;;;;;;;32.63;24.77;;;19.30;90.20;;;;;;5056216;28;20070;-35
2021/06/04 04:56:10;;;;;;;32.35;26.05;;;19.20;90.60;;;;;;5052134;28;20106;-35
2021/06/04 04:58:36;;;;;;;33.50;25.25;;;19.10;91.30;;;;;;5054299;28;20056;-35
2021/06/04 05:01:04;;;;;;;28.88;23.88;;;19.30;90.90;;;;;;5053926;28;20123;-35
2021/06/04 05:03:30;;;;;;;24.90;21.25;;;19.50;90.10;;;;;;5052672;28;20389;-35
2021/06/04 05:05:56;;;;;;;27.55;22.45;;;19.60;89.80;;;;;;5053973;28;20029;-35
2021/06/04 05:08:22;;;;;;;29.27;23.98;;;19.50;90.10;;;;;;5053825;28;20037;-35
2021/06/04 05:10:48;;;;;;;28.95;23.45;;;19.60;89.90;;;;;;5053683;28;20512;-35
2021/06/04 05:13:14;;;;;;;26.85;21.05;;;19.70;89.90;;;;;;5053573;28;20109;-35
2021/06/04 05:15:42;;;;;;;29.73;23.77;;;19.80;89.90;;;;;;5053704;28;20075;-35
2021/06/04 05:18:11;;;;;;;34.42;26.50;;;19.90;88.70;;;;;;5053928;28;20024;-36
2021/06/04 05:20:37;;;;;;;34.28;27.45;;;20.10;87.60;;;;;;5053892;28;20025;-36
2021/06/04 05:23:04;;;;;;;28.02;23.17;;;20.00;87.80;;;;;;5052322;28;20486;-34
2021/06/04 05:25:42;;;;;;;34.58;26.88;;;20.00;87.80;;;;;;5053807;28;20025;-36
2021/06/04 05:28:10;;;;;;;29.88;26.17;;;20.30;86.90;;;;;;5053537;28;20055;-35
2021/06/04 05:30:39;;;;;;;32.65;28.67;;;20.20;87.10;;;;;;5053693;28;20427;-36
2021/06/04 05:33:08;;;;;;;36.00;29.00;;;20.10;87.70;;;;;;5053107;28;20045;-36
2021/06/04 05:35:33;;;;;;;35.28;26.40;;;20.10;87.70;;;;;;5053376;28;20263;-35
2021/06/04 05:37:59;;;;;;;30.58;25.55;;;20.10;88.00;;;;;;5053400;28;20075;-35
2021/06/04 05:40:32;;;;;;;35.75;29.25;;;20.10;88.60;;;;;;5053830;28;20100;-35
2021/06/04 05:42:58;;;;;;;36.17;28.95;;;20.10;88.60;;;;;;5051951;28;20029;-37
2021/06/04 05:45:27;;;;;;;35.50;27.95;;;20.20;87.70;;;;;;5052233;28;20033;-35
2021/06/04 05:47:53;;;;;;;37.22;27.08;;;20.20;87.40;;;;;;5053299;28;20029;-35
2021/06/04 05:50:27;;;;;;;33.95;25.30;;;20.00;88.80;;;;;;5053135;28;20025;-36
2021/06/04 05:52:52;;;;;;;33.25;26.58;;;19.90;89.50;;;;;;5053200;28;20051;-36
2021/06/04 05:55:22;;;;;;;35.90;28.08;;;20.00;90.00;;;;;;5053390;28;20033;-36
2021/06/04 05:57:48;;;;;;;29.42;24.98;;;20.10;89.30;;;;;;5053157;28;20496;-35
2021/06/04 06:00:43;;;;;;;57.42;36.95;;;20.10;89.00;;;;;;5053040;28;20021;-35
2021/06/04 06:03:11;;;;;;;55.83;37.47;;;20.20;87.90;;;;;;5052419;28;20400;-34
2021/06/04 06:05:37;;;;;;;42.42;34.97;;;20.60;86.30;;;;;;5053153;28;20473;-35
2021/06/04 06:08:02;;;;;;;40.92;33.78;;;20.50;86.40;;;;;;5057051;28;20056;-35
2021/06/04 06:10:28;;;;;;;40.00;33.88;;;20.50;86.50;;;;;;5055844;28;20021;-35
2021/06/04 06:12:55;;;;;;;43.30;34.78;;;20.40;86.50;;;;;;5056947;28;20066;-36
2021/06/04 06:15:23;;;;;;;44.05;36.10;;;20.30;86.90;;;;;;5056939;28;20053;-35
2021/06/04 06:17:49;;;;;;;43.72;35.47;;;20.40;87.20;;;;;;5057063;28;20024;-37
2021/06/04 06:20:18;;;;;;;41.33;35.42;;;20.70;86.40;;;;;;5055644;28;20041;-35
2021/06/04 06:22:44;;;;;;;42.67;34.90;;;21.10;84.90;;;;;;5056800;28;20025;-35
2021/06/04 06:25:16;;;;;;;45.75;36.10;;;21.30;84.00;;;;;;5057148;28;20031;-34
2021/06/04 06:27:42;;;;;;;40.42;35.25;;;21.00;84.70;;;;;;5056962;28;20048;-36
2021/06/04 06:30:12;;;;;;;38.13;32.90;;;21.20;84.30;;;;;;5056924;28;20032;-36
2021/06/04 06:32:38;;;;;;;40.88;33.78;;;21.20;84.00;;;;;;5056360;28;20409;-36
2021/06/04 06:35:05;;;;;;;41.78;33.40;;;21.00;85.40;;;;;;5056175;28;20025;-36
2021/06/04 06:37:30;;;;;;;41.72;34.03;;;20.90;85.30;;;;;;5056625;28;20374;-35
2021/06/04 06:39:56;;;;;;;42.85;34.25;;;21.00;85.50;;;;;;5056099;28;20021;-36
2021/06/04 06:42:22;;;;;;;42.72;35.58;;;20.90;85.70;;;;;;5055930;28;20020;-36
2021/06/04 06:44:48;;;;;;;38.00;33.97;;;21.00;85.30;;;;;;5056360;28;20039;-35
2021/06/04 06:47:14;;;;;;;40.42;32.28;;;21.10;84.60;;;;;;5055697;28;20029;-35
2021/06/04 06:49:39;;;;;;;40.22;33.25;;;21.20;84.00;;;;;;5054871;28;20031;-35
2021/06/04 06:52:09;;;;;;;40.50;34.15;;;21.20;83.60;;;;;;5055894;28;20040;-35
2021/06/04 07:31:48;;;;;;;35.50;31.75;;;23.20;77.20;;;;;;5010777;28;20368;-37
2021/06/04 07:34:14;;;;;;;37.08;31.42;;;23.30;76.20;;;;;;5009966;28;20056;-38
2021/06/04 07:36:44;;;;;;;35.97;32.15;;;22.90;77.60;;;;;;5009593;28;20101;-38
2021/06/04 07:39:14;;;;;;;40.35;33.55;;;22.90;77.90;;;;;;5009843;28;20488;-37
2021/06/04 07:41:40;;;;;;;33.70;29.77;;;23.30;75.80;;;;;;5010517;28;20113;-37
2021/06/04 07:44:07;;;;;;;37.88;31.83;;;23.60;75.50;;;;;;5009970;28;20081;-37
2021/06/04 07:46:34;;;;;;;34.85;31.17;;;23.80;75.00;;;;;;5009560;28;20019;-36
2021/06/04 07:48:59;;;;;;;37.10;31.67;;;23.80;73.50;;;;;;5009345;28;20037;-36
2021/06/04 07:51:30;;;;;;;36.03;29.20;;;23.70;74.00;;;;;;5009702;28;20015;-38
2021/06/04 07:53:56;;;;;;;39.60;34.53;;;23.50;74.30;;;;;;5009476;28;20022;-36
2021/06/04 07:56:22;;;;;;;36.75;32.33;;;23.70;73.30;;;;;;5009675;28;20022;-36
2021/06/04 07:58:48;;;;;;;37.53;33.13;;;23.70;73.00;;;;;;5009336;28;20064;-36
2021/06/04 08:01:15;;;;;;;38.95;33.08;;;23.80;73.20;;;;;;5009150;28;20041;-37
2021/06/04 08:03:41;;;;;;;37.50;32.63;;;23.60;74.00;;;;;;5041148;28;20022;-37
2021/06/04 08:06:09;;;;;;;38.53;34.25;;;23.30;75.60;;;;;;5009310;28;20044;-36
2021/06/04 08:08:36;;;;;;;37.97;33.95;;;23.20;75.70;;;;;;5009311;28;20470;-36
2021/06/04 08:11:05;;;;;;;38.00;31.48;;;23.40;75.50;;;;;;5040876;28;20030;-36
2021/06/04 08:13:31;;;;;;;41.55;33.15;;;23.50;75.00;;;;;;5009140;28;20063;-37
2021/06/04 08:16:03;;;;;;;33.78;29.33;;;23.80;74.60;;;;;;5007973;28;20168;-38
2021/06/04 08:18:32;;;;;;;32.95;29.17;;;24.40;72.20;;;;;;5007830;28;20026;-37
2021/06/04 08:20:59;;;;;;;36.92;31.65;;;25.20;68.50;;;;;;5008872;28;20049;-37
2021/06/04 08:23:29;;;;;;;34.55;29.33;;;25.20;67.20;;;;;;5009138;28;20029;-37
2021/06/04 08:25:57;;;;;;;35.10;31.30;;;25.50;66.50;;;;;;5009209;28;20022;-38
2021/06/04 08:28:26;;;;;;;38.17;31.00;;;25.30;66.90;;;;;;5008981;28;20018;-38
2021/06/04 08:30:52;;;;;;;38.08;33.55;;;25.50;66.30;;;;;;5005870;28;20058;-37
2021/06/04 08:33:29;;;;;;;39.25;34.35;;;25.80;64.40;;;;;;4996080;28;20474;-38
2021/06/04 08:35:57;;;;;;;40.38;32.72;;;26.00;63.90;;;;;;4996240;28;20117;-37
2021/06/04 08:38:24;;;;;;;36.33;31.98;;;27.10;60.90;;;;;;4996231;28;20045;-37
2021/06/04 08:40:51;;;;;;;43.70;35.28;;;26.50;62.40;;;;;;4994514;28;20038;-37
2021/06/04 08:43:42;;;;;;;42.42;37.88;;;25.70;64.80;;;;;;4995766;28;20019;-41
2021/06/04 08:46:22;;;;;;;42.85;38.20;;;25.30;65.90;;;;;;4995348;28;20021;-38
2021/06/04 08:49:05;;;;;;;42.83;38.10;;;25.00;67.10;;;;;;4995546;28;20434;-37
2021/06/04 08:51:59;;;;;;;44.72;39.38;;;24.50;69.30;;;;;;4996314;28;20029;-36
2021/06/04 08:54:34;;;;;;;45.05;39.03;;;25.40;64.80;;;;;;4985079;28;20441;-38
2021/06/04 08:57:03;;;;;;;44.10;36.97;;;24.80;66.00;;;;;;4994505;28;20041;-37
2021/06/04 08:59:32;;;;;;;45.67;37.60;;;24.30;67.80;;;;;;4995596;28;20026;-38
2021/06/04 09:02:00;;;;;;;47.50;40.20;;;24.90;65.50;;;;;;4995896;28;20053;-38
2021/06/04 09:04:54;;;;;;;39.45;35.28;;;25.30;65.80;;;;;;4995928;28;20061;-37
2021/06/04 09:07:24;;;;;;;38.13;33.70;;;26.00;63.20;;;;;;4989733;28;20038;-37
2021/06/04 09:09:59;;;;;;;41.50;34.28;;;27.10;58.20;;;;;;4995811;28;20026;-37
2021/06/04 09:12:38;;;;;;;38.67;31.75;;;26.90;57.40;;;;;;4994286;28;20046;-37
2021/06/04 09:15:07;;;;;;;32.78;27.25;;;26.20;59.90;;;;;;4995315;28;20125;-37
2021/06/04 09:17:53;;;;;;;32.10;28.60;;;27.00;56.10;;;;;;4994879;28;20053;-37
2021/06/04 09:20:30;;;;;;;36.10;29.17;;;28.30;52.60;;;;;;4995415;28;20030;-37
2021/06/04 09:23:02;;;;;;;38.80;30.85;;;29.00;50.20;;;;;;4995813;28;20031;-38
2021/06/04 09:25:34;;;;;;;33.42;29.67;;;29.00;48.60;;;;;;4994699;28;20084;-38
2021/06/04 09:28:09;;;;;;;35.58;31.35;;;28.50;49.70;;;;;;4994123;28;20076;-38
2021/06/04 09:30:41;;;;;;;41.05;36.58;;;27.30;51.70;;;;;;4995394;28;20050;-38
2021/06/04 09:33:12;;;;;;;42.72;38.33;;;26.80;52.70;;;;;;4994102;28;20114;-38
2021/06/04 09:36:00;;;;;;;40.90;36.47;;;26.70;54.00;;;;;;4977975;28;20030;-38
2021/06/04 09:38:29;;;;;;;40.55;36.15;;;26.40;55.30;;;;;;4995442;28;20048;-38
2021/06/04 09:40:55;;;;;;;38.78;34.10;;;26.80;54.00;;;;;;4995427;28;20524;-38
2021/06/04 09:43:31;;;;;;;37.58;33.50;;;27.00;53.80;;;;;;4994465;28;20121;-39
2021/06/04 09:46:06;;;;;;;37.38;30.77;;;28.00;50.40;;;;;;4993435;28;20478;-37
2021/06/04 09:48:57;;;;;;;36.35;32.28;;;27.60;51.90;;;;;;4996991;28;20031;-38
2021/06/04 09:51:23;;;;;;;35.03;31.17;;;28.20;50.60;;;;;;4994989;28;20077;-38
2021/06/04 09:53:49;;;;;;;38.22;32.63;;;28.80;49.20;;;;;;4995582;28;20026;-38
2021/06/04 09:56:30;;;;;;;39.58;34.83;;;27.30;51.90;;;;;;4993485;28;20018;-39
2021/06/04 09:59:02;;;;;;;42.15;36.42;;;25.40;58.20;;;;;;4996345;28;20031;-37
2021/06/04 10:01:42;;;;;;;40.97;35.65;;;25.20;58.50;;;;;;4993309;28;20022;-37
2021/06/04 10:04:24;;;;;;;42.63;37.33;;;25.50;58.50;;;;;;4995020;28;20088;-38
2021/06/04 10:07:01;;;;;;;41.35;36.90;;;25.50;58.30;;;;;;4994896;28;20030;-38
2021/06/04 10:09:27;;;;;;;35.70;32.00;;;25.70;58.50;;;;;;4994952;28;20119;-38
2021/06/04 10:11:59;;;;;;;39.80;34.50;;;25.80;57.90;;;;;;4994276;28;20113;-39
2021/06/04 10:14:39;;;;;;;37.67;33.63;;;26.10;57.30;;;;;;4994215;28;20382;-38
2021/06/04 10:19:59;;;;;;;31.48;28.17;;;26.30;56.60;;;;;;4993959;28;20057;-38
2021/06/04 10:22:25;;;;;;;37.45;30.02;;;27.90;52.10;;;;;;4994207;28;20030;-38
2021/06/04 10:24:53;;;;;;;35.42;28.80;;;28.50;50.50;;;;;;4993827;28;20062;-38
2021/06/04 10:27:25;;;;;;;31.83;28.63;;;28.60;48.00;;;;;;4993950;28;20034;-37
2021/06/04 10:30:04;;;;;;;31.38;28.00;;;29.30;45.90;;;;;;4993809;28;20086;-37
2021/06/04 10:32:36;;;;;;;33.23;29.37;;;28.70;47.10;;;;;;4994377;28;20034;-37
2021/06/04 10:35:02;;;;;;;32.50;29.00;;;27.70;50.00;;;;;;4994411;28;20258;-37
2021/06/04 10:37:53;;;;;;;31.52;28.13;;;27.30;50.80;;;;;;4994214;28;20389;-36
2021/06/04 10:40:23;;;;;;;29.52;26.42;;;27.80;49.90;;;;;;4987265;28;20038;-36
2021/06/04 10:43:19;;;;;;;28.60;25.60;;;28.30;48.70;;;;;;4993783;28;20023;-36
2021/06/04 10:45:57;;;;;;;30.63;26.50;;;28.70;48.20;;;;;;4993966;28;20070;-38
2021/06/04 10:48:50;;;;;;;28.63;25.52;;;29.70;44.90;;;;;;4993434;28;20540;-37
2021/06/04 10:51:28;;;;;;;27.67;24.75;;;30.00;43.80;;;;;;4994217;28;20023;-37
2021/06/04 10:54:21;;;;;;;35.22;25.77;;;29.70;44.90;;;;;;4993414;28;20466;-37
2021/06/04 10:57:19;;;;;;;25.85;23.35;;;29.80;44.20;;;;;;4994130;28;20125;-39
2021/06/04 10:59:53;;;;;;;25.08;21.42;;;29.80;43.50;;;;;;4980504;28;20043;-38
2021/06/04 11:02:24;;;;;;;26.20;23.42;;;29.50;44.50;;;;;;4992689;28;20019;-38
2021/06/04 11:05:01;;;;;;;23.38;20.73;;;29.40;43.80;;;;;;4994375;28;20469;-37
2021/06/04 11:07:56;;;;;;;24.88;21.85;;;28.90;45.30;;;;;;4993874;28;20027;-37
2021/06/04 11:10:41;;;;;;;27.42;20.52;;;28.90;45.90;;;;;;4970776;28;20081;-36
2021/06/04 11:13:25;;;;;;;21.88;19.65;;;28.30;47.20;;;;;;4993651;28;20049;-37
2021/06/04 11:16:13;;;;;;;31.27;22.98;;;28.10;47.60;;;;;;4993267;28;20112;-37
2021/06/04 11:18:53;;;;;;;27.10;22.48;;;28.80;45.90;;;;;;4992156;28;20070;-44
2021/06/04 11:21:35;;;;;;;;;;;28.70;45.60;;;;;;4994097;28;20085;-45
2021/06/04 11:24:13;;;;;;;24.35;21.05;;;29.30;44.60;;;;;;4993478;28;19912;-37
2021/06/04 11:26:53;;;;;;;22.83;20.52;;;29.50;43.60;;;;;;4993743;28;20041;-36
2021/06/04 11:29:27;;;;;;;20.63;18.55;;;29.20;43.80;;;;;;4992154;28;20018;-38
2021/06/04 11:32:03;;;;;;;22.83;20.42;;;29.60;43.20;;;;;;4993498;28;20173;-37
2021/06/04 11:34:46;;;;;;;24.00;18.83;;;30.20;41.50;;;;;;4993689;28;20018;-38
2021/06/04 11:37:23;;;;;;;23.40;17.75;;;29.80;42.70;;;;;;4993995;28;20037;-36
2021/06/04 11:39:52;;;;;;;20.38;18.25;;;31.30;39.90;;;;;;4993684;28;20066;-37
2021/06/04 11:42:36;;;;;;;21.20;17.95;;;31.70;39.00;;;;;;4992247;28;20474;-38
2021/06/04 11:45:07;;;;;;;21.73;18.42;;;31.80;38.60;;;;;;4993547;28;20026;-38
2021/06/04 11:47:38;;;;;;;21.05;18.17;;;30.50;40.40;;;;;;4993254;28;20018;-38
2021/06/04 11:50:37;;;;;;;17.73;15.52;;;31.40;39.40;;;;;;5071017;28;20384;-38
2021/06/04 11:53:33;;;;;;;16.60;13.23;;;32.00;37.90;;;;;;5070703;28;20032;-42
2021/06/04 11:55:59;;;;;;;18.15;14.20;;;32.00;36.70;;;;;;5070361;28;20045;-37
2021/06/04 11:58:28;;;;;;;20.73;16.20;;;29.80;40.60;;;;;;5070211;28;20021;-37
2021/06/04 12:01:13;;;;;;;18.17;14.90;;;29.30;41.80;;;;;;5070248;28;20032;-37
2021/06/04 12:03:45;;;;;;;16.65;14.63;;;30.00;41.20;;;;;;5068554;28;20096;-36
2021/06/04 12:06:49;;;;;;;23.90;16.35;;;29.30;42.50;;;;;;5101412;28;20017;-37
2021/06/04 12:09:33;;;;;;;17.90;15.95;;;28.90;43.40;;;;;;5052039;28;20143;-37
2021/06/04 12:12:19;;;;;;;18.85;13.98;;;29.10;42.50;;;;;;5069872;28;20025;-36
2021/06/04 12:15:08;;;;;;;16.48;14.57;;;29.90;40.70;;;;;;5069777;28;20086;-37
2021/06/04 12:17:37;;;;;;;16.38;14.68;;;31.20;37.80;;;;;;5060024;28;20492;-38
2021/06/04 12:20:22;;;;;;;20.00;13.60;;;32.00;36.10;;;;;;5069985;28;20047;-37
2021/06/04 12:22:52;;;;;;;17.48;14.57;;;32.10;36.10;;;;;;5049680;28;20084;-38
2021/06/04 12:25:56;;;;;;;20.17;14.60;;;32.40;35.40;;;;;;5049821;28;20084;-38
2021/06/04 12:28:22;;;;;;;15.88;14.05;;;32.20;35.70;;;;;;5049492;28;20036;-38
2021/06/04 12:30:52;;;;;;;17.90;12.43;;;32.30;35.70;;;;;;5047785;28;20033;-40
2021/06/04 12:33:30;;;;;;;16.42;13.25;;;32.90;34.80;;;;;;5049623;28;20329;-39
2021/06/04 12:35:56;;;;;;;15.55;13.90;;;32.80;35.70;;;;;;5049302;28;20361;-38
2021/06/04 12:38:32;;;;;;;13.85;12.10;;;32.80;34.80;;;;;;5081662;28;20031;-37
2021/06/04 13:25:23;;;;;;;20.70;12.13;;;29.70;40.30;;;;;;5171667;27;86327;-39
2021/06/04 13:28:17;;;;;;;12.77;11.38;;;30.40;37.80;;;;;;5151966;27;20038;-38
2021/06/04 13:30:49;;;;;;;13.40;11.80;;;30.40;37.30;;;;;;5152196;27;20019;-37
2021/06/04 13:33:24;;;;;;;14.00;9.35;;;31.20;36.50;;;;;;5152080;27;20114;-39
2021/06/04 13:35:51;;;;;;;10.43;8.95;;;31.60;34.50;;;;;;5152043;27;20041;-37
2021/06/04 13:38:17;;;;;;;12.60;10.30;;;31.50;34.30;;;;;;5151976;27;20379;-40
2021/06/04 13:40:44;;;;;;;15.25;12.50;;;32.70;32.90;;;;;;5150801;27;20019;-38
2021/06/04 13:43:47;;;;;;;15.40;12.60;;;33.80;34.00;;;;;;5152125;27;20019;-38
2021/06/04 13:46:18;;;;;;;12.40;11.15;;;33.40;35.90;;;;;;5152601;27;20452;-37
2021/06/04 13:49:05;;;;;;;11.32;10.32;;;31.90;37.00;;;;;;5151726;27;20522;-39
2021/06/04 13:51:57;;;;;;;16.27;12.02;;;30.90;39.00;;;;;;5152038;27;20042;-38
2021/06/04 13:54:34;;;;;;;11.02;10.02;;;31.20;38.80;;;;;;5140609;27;20037;-38
2021/06/04 13:57:17;;;;;;;10.70;9.63;;;31.20;38.20;;;;;;5151647;27;20019;-38
2021/06/04 13:59:43;;;;;;;12.68;8.70;;;31.30;36.50;;;;;;5152601;27;20043;-38
2021/06/04 14:02:17;;;;;;;10.48;8.35;;;32.30;35.20;;;;;;5150548;27;20027;-38
2021/06/04 14:04:55;;;;;;;15.13;10.05;;;32.80;33.80;;;;;;5152139;27;20027;-38
2021/06/04 14:07:38;;;;;;;12.07;8.73;;;33.40;33.10;;;;;;5152603;27;20015;-37
2021/06/04 14:10:35;;;;;;;10.45;8.88;;;32.00;36.20;;;;;;5151452;27;20553;-38
2021/06/04 14:13:11;;;;;;;9.57;7.78;;;31.90;36.90;;;;;;5129956;27;20031;-37
2021/06/04 14:15:40;;;;;;;9.30;7.57;;;32.40;35.60;;;;;;5151466;27;20015;-38
2021/06/04 14:18:30;;;;;;;14.85;9.13;;;32.30;36.60;;;;;;5150014;27;20015;-38
2021/06/04 14:20:57;;;;;;;9.63;7.63;;;32.50;36.60;;;;;;5133656;27;20493;-37
2021/06/04 14:23:31;;;;;;;12.35;8.00;;;31.70;37.50;;;;;;5150557;27;20019;-37